Time;durP1;ratioP1;P1;durP2;ratioP2;P2;SDS_P1;SDS_P2;PMS_P1;PMS_P2;Temp;Humidity;BMP_temperature;BMP_pressure;BME280_temperature;BME280_humidity;BME280_pressure;Samples;Min_cycle;Max_cycle;Signal;HPM_P1;HPM_P2
2023/07/09 00:03:22;;;;;;;9.73;6.57;;;14.10;99.90;;;;;;25710882;23;20012;-49
2023/07/09 00:13:26;;;;;;;12.30;6.47;;;14.10;99.90;;;;;;25717509;23;20008;-45
2023/07/09 00:23:29;;;;;;;12.13;6.05;;;14.20;99.90;;;;;;25718382;23;20338;-45
2023/07/09 00:33:31;;;;;;;11.20;6.03;;;14.20;99.90;;;;;;25718035;23;20012;-44
2023/07/09 00:43:37;;;;;;;10.68;6.50;;;14.10;99.90;;;;;;25690853;23;20068;-47
2023/07/09 00:53:45;;;;;;;8.73;6.32;;;13.90;99.90;;;;;;25717558;23;20005;-44
2023/07/09 01:03:59;;;;;;;7.97;5.78;;;14.00;99.90;;;;;;25758618;23;20408;-44
2023/07/09 01:14:03;;;;;;;10.40;6.82;;;14.00;99.90;;;;;;25690385;23;20013;-44
2023/07/09 01:24:35;;;;;;;10.18;6.60;;;13.90;99.90;;;;;;25715664;23;20008;-47
2023/07/09 01:34:39;;;;;;;11.75;7.22;;;14.00;99.90;;;;;;25716293;23;20001;-45
2023/07/09 01:44:41;;;;;;;12.52;7.93;;;14.10;99.90;;;;;;25688575;23;20078;-48
2023/07/09 01:54:46;;;;;;;10.23;6.75;;;14.10;99.90;;;;;;25688697;23;20001;-49
2023/07/09 02:04:55;;;;;;;11.13;7.93;;;14.00;99.90;;;;;;25714346;23;20051;-50
2023/07/09 02:14:58;;;;;;;11.13;7.30;;;13.90;99.90;;;;;;25714064;23;20001;-45
2023/07/09 02:25:00;;;;;;;8.98;6.57;;;14.00;99.90;;;;;;25713958;23;20007;-46
2023/07/09 02:35:01;;;;;;;10.93;7.57;;;14.10;99.90;;;;;;25686917;23;20005;-49
2023/07/09 02:45:04;;;;;;;8.18;5.18;;;13.90;99.90;;;;;;25686477;23;20027;-48
2023/07/09 02:55:07;;;;;;;7.68;5.13;;;14.20;99.90;;;;;;25685948;23;19997;-45
2023/07/09 03:05:10;;;;;;;7.22;5.78;;;14.40;99.90;;;;;;25713608;23;20429;-45
2023/07/09 03:15:12;;;;;;;11.05;6.30;;;14.20;99.90;;;;;;25710801;23;20420;-48
2023/07/09 03:25:14;;;;;;;9.02;5.38;;;14.20;99.90;;;;;;25713264;23;20027;-48
2023/07/09 03:35:15;;;;;;;7.45;5.72;;;14.20;99.90;;;;;;25711406;23;20004;-49
2023/07/09 03:45:17;;;;;;;11.88;6.00;;;14.10;99.90;;;;;;25684521;23;20070;-48
2023/07/09 03:55:19;;;;;;;13.80;6.45;;;14.50;99.90;;;;;;25710770;23;20040;-44
2023/07/09 04:05:20;;;;;;;9.63;6.85;;;14.70;99.90;;;;;;25683993;23;20092;-47
2023/07/09 04:15:22;;;;;;;6.72;4.65;;;14.80;99.90;;;;;;25710530;23;20008;-44
2023/07/09 04:25:24;;;;;;;8.07;5.15;;;14.70;99.90;;;;;;25710576;23;20070;-44
2023/07/09 04:35:25;;;;;;;9.00;5.50;;;14.80;99.90;;;;;;25710218;23;20008;-46
2023/07/09 04:45:27;;;;;;;8.15;4.97;;;15.10;99.90;;;;;;25708571;23;20020;-51
2023/07/09 04:55:29;;;;;;;10.07;5.15;;;15.80;99.90;;;;;;25712181;23;20012;-49
2023/07/09 05:05:31;;;;;;;8.52;5.90;;;16.20;99.90;;;;;;25717185;23;20059;-53
2023/07/09 05:15:32;;;;;;;8.77;5.07;;;16.60;99.90;;;;;;25716515;23;20008;-49
2023/07/09 05:25:34;;;;;;;9.60;5.15;;;16.80;99.90;;;;;;25716242;23;20332;-45
2023/07/09 05:35:36;;;;;;;11.93;6.75;;;17.10;99.90;;;;;;25715903;23;20502;-47
2023/07/09 05:45:40;;;;;;;6.82;4.78;;;16.90;99.90;;;;;;25715183;23;20063;-48
2023/07/09 05:55:42;;;;;;;6.70;4.47;;;17.00;99.90;;;;;;25713482;23;20039;-45
2023/07/09 06:05:44;;;;;;;7.15;4.47;;;17.20;99.90;;;;;;25714397;23;20005;-51
2023/07/09 06:15:46;;;;;;;6.97;3.97;;;17.50;99.90;;;;;;25712616;23;20004;-44
2023/07/09 06:25:48;;;;;;;5.05;3.80;;;19.30;99.90;;;;;;25713861;23;20005;-45
2023/07/09 06:35:59;;;;;;;5.05;4.00;;;23.70;99.90;;;;;;25712458;23;20001;-45
2023/07/09 06:46:01;;;;;;;6.40;3.60;;;25.90;99.50;;;;;;25739245;23;20012;-47
2023/07/09 06:56:03;;;;;;;5.10;4.13;;;27.20;96.70;;;;;;25712315;23;20004;-49
2023/07/09 07:06:06;;;;;;;6.43;4.50;;;27.50;96.50;;;;;;25712035;23;20005;-54
2023/07/09 07:16:10;;;;;;;6.80;4.18;;;27.40;95.00;;;;;;25711312;23;20005;-52
2023/07/09 07:26:12;;;;;;;5.93;4.88;;;28.40;96.90;;;;;;25711118;23;20016;-49
2023/07/09 07:36:13;;;;;;;6.85;5.55;;;29.90;96.50;;;;;;25709059;23;20008;-46
2023/07/09 07:46:15;;;;;;;6.63;5.38;;;30.70;94.60;;;;;;25710857;23;20013;-53
2023/07/09 07:56:17;;;;;;;7.23;5.43;;;30.50;94.20;;;;;;25709279;23;20027;-54
2023/07/09 08:06:19;;;;;;;6.90;5.60;;;30.40;93.60;;;;;;25710322;23;20336;-44
2023/07/09 08:16:21;;;;;;;7.50;4.97;;;29.80;93.50;;;;;;25709774;23;20013;-54
2023/07/09 08:26:24;;;;;;;6.05;5.28;;;29.60;93.70;;;;;;25682835;23;20087;-53
2023/07/09 08:36:25;;;;;;;9.63;5.22;;;29.40;94.40;;;;;;25716853;23;20284;-47
2023/07/09 08:46:58;;;;;;;6.20;5.60;;;29.60;93.40;;;;;;25712684;23;20522;-46
2023/07/09 08:57:14;;;;;;;6.30;5.40;;;29.70;94.40;;;;;;25713048;23;20628;-48
2023/07/09 09:07:42;;;;;;;8.25;5.80;;;29.60;93.80;;;;;;25752629;23;20370;-48
2023/07/09 09:17:44;;;;;;;6.50;5.68;;;29.90;93.90;;;;;;25753107;23;20142;-46
2023/07/09 09:27:45;;;;;;;6.25;5.65;;;30.00;94.40;;;;;;25711276;23;20005;-48
2023/07/09 09:37:52;;;;;;;6.45;5.72;;;30.00;94.60;;;;;;25712508;23;20004;-48
2023/07/09 09:47:59;;;;;;;6.50;5.85;;;29.80;93.20;;;;;;25709942;23;20019;-47
2023/07/09 09:58:04;;;;;;;7.93;6.30;;;30.10;94.70;;;;;;25753413;23;20004;-47
2023/07/09 10:08:06;;;;;;;;;;;30.10;94.10;;;;;;25709324;23;20004;-55
2023/07/09 10:18:25;;;;;;;8.15;6.47;;;30.10;94.60;;;;;;25708931;23;19911;-53
2023/07/09 10:28:43;;;;;;;8.52;6.03;;;29.90;94.90;;;;;;25722879;23;20000;-48
2023/07/09 10:39:03;;;;;;;9.18;6.65;;;30.00;95.10;;;;;;25722986;23;20005;-55
2023/07/09 10:49:09;;;;;;;7.97;6.40;;;29.70;95.70;;;;;;25722183;23;20035;-53
2023/07/09 10:59:33;;;;;;;7.82;6.15;;;30.00;95.00;;;;;;25749192;23;20016;-49
2023/07/09 11:09:40;;;;;;;7.97;6.57;;;30.10;95.50;;;;;;25722240;23;20004;-54
2023/07/09 11:19:48;;;;;;;6.93;6.20;;;30.20;95.80;;;;;;25749239;23;20110;-54
2023/07/09 11:30:35;;;;;;;8.95;7.22;;;30.00;96.50;;;;;;25707231;23;20009;-54
2023/07/09 11:40:46;;;;;;;8.05;7.15;;;30.10;94.80;;;;;;25202810;23;20457;-55
2023/07/09 11:50:50;;;;;;;13.13;7.55;;;30.00;96.30;;;;;;25201139;23;20093;-48
2023/07/09 12:00:55;;;;;;;11.57;6.32;;;29.80;95.80;;;;;;25202902;23;20105;-55
2023/07/09 12:10:57;;;;;;;8.47;7.03;;;30.00;98.20;;;;;;25327799;23;20016;-54
2023/07/09 12:20:59;;;;;;;8.90;7.15;;;29.90;96.30;;;;;;25713517;23;20000;-56
2023/07/09 12:31:00;;;;;;;8.38;7.43;;;29.70;95.20;;;;;;25713577;23;20004;-55
2023/07/09 12:41:03;;;;;;;11.20;9.30;;;29.80;96.80;;;;;;25713424;23;20044;-49
2023/07/09 12:51:08;;;;;;;8.15;7.30;;;29.80;94.60;;;;;;25713093;23;20015;-57
2023/07/09 13:01:17;;;;;;;9.60;7.50;;;30.00;96.60;;;;;;25712627;23;20008;-56
2023/07/09 13:11:19;;;;;;;10.15;7.38;;;29.80;95.60;;;;;;25710519;23;20016;-55
2023/07/09 13:21:22;;;;;;;8.90;8.00;;;30.00;95.70;;;;;;25711632;23;20005;-47
2023/07/09 13:31:24;;;;;;;9.32;7.28;;;30.00;96.30;;;;;;25709912;23;20009;-57
2023/07/09 13:41:25;;;;;;;10.00;7.25;;;30.10;95.80;;;;;;25710170;23;20009;-57
2023/07/09 13:51:28;;;;;;;8.43;7.50;;;30.10;95.10;;;;;;25586260;23;20017;-47
2023/07/09 14:01:30;;;;;;;9.30;7.00;;;30.00;94.50;;;;;;25590302;23;20445;-47
2023/07/09 14:11:33;;;;;;;10.00;7.50;;;29.70;96.00;;;;;;25593889;23;20013;-50
2023/07/09 14:21:35;;;;;;;7.53;6.13;;;30.10;94.90;;;;;;25586074;23;20005;-49
2023/07/09 14:31:37;;;;;;;7.28;6.53;;;30.60;92.00;;;;;;25560086;23;20452;-57
2023/07/09 14:41:39;;;;;;;6.07;5.47;;;31.20;92.80;;;;;;25608971;23;20001;-47
2023/07/09 14:51:41;;;;;;;7.05;5.70;;;31.60;92.40;;;;;;25698833;23;20008;-50
2023/07/09 15:01:44;;;;;;;6.97;5.93;;;32.10;91.60;;;;;;25708799;23;20360;-48
2023/07/09 15:11:57;;;;;;;7.30;6.00;;;32.40;90.00;;;;;;25681015;23;20012;-48
2023/07/09 15:21:59;;;;;;;8.10;5.72;;;32.40;90.20;;;;;;25748242;23;20432;-49
2023/07/09 15:32:00;;;;;;;7.65;6.10;;;32.20;90.00;;;;;;25707609;23;20027;-46
2023/07/09 15:42:04;;;;;;;7.00;5.93;;;32.20;87.80;;;;;;25707137;23;20000;-48
2023/07/09 15:52:07;;;;;;;7.83;6.37;;;31.70;90.30;;;;;;25707495;23;20116;-48
2023/07/09 16:02:14;;;;;;;7.28;6.03;;;31.10;90.30;;;;;;25705538;23;20040;-47
2023/07/09 16:12:16;;;;;;;8.60;7.28;;;30.50;91.20;;;;;;25747741;23;20001;-55
2023/07/09 16:22:21;;;;;;;8.15;5.53;;;28.40;91.90;;;;;;25706599;23;20031;-54
2023/07/09 16:32:22;;;;;;;9.40;6.18;;;26.60;94.10;;;;;;25705082;23;20015;-48
2023/07/09 16:42:25;;;;;;;11.45;6.88;;;25.60;95.90;;;;;;25706144;23;20066;-51
2023/07/09 16:52:27;;;;;;;13.00;6.88;;;24.70;97.70;;;;;;25710391;23;20444;-55
2023/07/09 17:02:32;;;;;;;7.03;5.70;;;22.90;99.90;;;;;;25686986;23;20008;-46
2023/07/09 17:12:33;;;;;;;9.40;6.43;;;21.60;99.90;;;;;;25712984;23;20004;-47
2023/07/09 17:22:35;;;;;;;8.65;6.38;;;20.80;99.90;;;;;;25712637;23;20357;-46
2023/07/09 17:32:37;;;;;;;9.48;6.25;;;20.30;99.90;;;;;;25711825;23;20000;-47
2023/07/09 17:42:38;;;;;;;9.95;6.30;;;19.80;99.90;;;;;;25685506;23;20001;-48
2023/07/09 17:52:40;;;;;;;10.40;6.70;;;19.50;99.90;;;;;;25726994;23;20009;-48
2023/07/09 18:02:41;;;;;;;8.15;6.22;;;19.20;99.90;;;;;;25711584;23;20005;-47
2023/07/09 18:12:43;;;;;;;11.07;6.85;;;18.80;99.90;;;;;;25711218;23;20067;-48
2023/07/09 18:22:45;;;;;;;10.52;7.50;;;18.50;99.90;;;;;;25712141;23;20421;-48
2023/07/09 18:32:55;;;;;;;12.05;8.32;;;18.30;99.90;;;;;;25686208;23;20147;-48
2023/07/09 18:42:57;;;;;;;;;;;18.10;99.90;;;;;;25753380;23;20008;-51
2023/07/09 18:52:59;;;;;;;11.57;10.05;;;18.20;99.90;;;;;;25755775;23;19908;-53
2023/07/09 19:03:00;;;;;;;12.15;8.65;;;18.10;99.90;;;;;;25712602;23;20009;-50
2023/07/09 19:13:07;;;;;;;15.43;9.93;;;17.90;99.90;;;;;;25708715;23;20019;-52
2023/07/09 19:23:17;;;;;;;14.10;10.05;;;17.90;99.90;;;;;;25749819;23;20036;-51
2023/07/09 19:33:23;;;;;;;16.00;11.65;;;18.00;99.90;;;;;;25751712;23;20301;-48
2023/07/09 19:43:25;;;;;;;15.80;11.75;;;17.80;99.90;;;;;;25741898;23;20070;-54
2023/07/09 19:53:27;;;;;;;15.02;11.32;;;17.50;99.90;;;;;;25711475;23;20340;-48
2023/07/09 20:03:34;;;;;;;15.80;12.20;;;17.20;99.90;;;;;;25711760;23;20059;-49
2023/07/09 20:13:35;;;;;;;14.50;12.10;;;17.30;99.90;;;;;;25710056;23;20011;-52
2023/07/09 20:23:37;;;;;;;16.08;11.85;;;17.30;99.90;;;;;;25684135;23;20009;-50
2023/07/09 20:33:38;;;;;;;15.85;12.18;;;17.20;99.90;;;;;;25716917;23;20000;-47
2023/07/09 20:43:40;;;;;;;17.48;12.38;;;17.10;99.90;;;;;;25689589;23;20009;-54
2023/07/09 20:53:42;;;;;;;17.08;13.50;;;17.00;99.90;;;;;;25716039;23;20015;-53
2023/07/09 21:03:43;;;;;;;18.77;14.52;;;17.00;99.90;;;;;;25716390;23;20009;-46
2023/07/09 21:13:45;;;;;;;23.60;15.70;;;16.80;99.90;;;;;;25715804;23;20005;-51
2023/07/09 21:23:46;;;;;;;21.83;16.50;;;16.70;99.90;;;;;;25715790;23;20062;-48
2023/07/09 21:33:48;;;;;;;22.52;16.13;;;16.70;99.90;;;;;;25715484;23;20082;-52
2023/07/09 21:43:50;;;;;;;29.80;18.25;;;16.70;99.90;;;;;;25713624;23;20013;-50
2023/07/09 21:53:51;;;;;;;25.17;18.63;;;16.70;99.90;;;;;;25714800;23;20028;-50
2023/07/09 22:03:53;;;;;;;21.23;17.38;;;16.60;99.90;;;;;;25713882;23;20359;-46
2023/07/09 22:13:55;;;;;;;23.20;15.15;;;16.50;99.90;;;;;;25714131;23;20008;-45
2023/07/09 22:23:57;;;;;;;18.45;14.68;;;16.60;99.90;;;;;;25714105;23;20001;-50
2023/07/09 22:34:00;;;;;;;18.63;12.90;;;16.60;99.90;;;;;;25713264;23;20005;-46
2023/07/09 22:44:02;;;;;;;18.35;12.65;;;16.60;99.90;;;;;;25712034;23;20008;-49
2023/07/09 22:54:07;;;;;;;14.30;11.40;;;16.40;99.90;;;;;;25711689;23;20436;-49
2023/07/09 23:04:13;;;;;;;17.10;13.07;;;16.30;99.90;;;;;;25712435;23;20016;-48
2023/07/09 23:14:18;;;;;;;20.33;14.60;;;16.30;99.90;;;;;;25753792;23;20000;-45
2023/07/09 23:24:20;;;;;;;21.33;15.18;;;16.10;99.90;;;;;;25711888;23;20004;-44
2023/07/09 23:34:22;;;;;;;15.90;10.82;;;16.20;99.90;;;;;;25711607;23;20376;-47
2023/07/09 23:44:27;;;;;;;15.68;11.48;;;16.20;99.90;;;;;;25711547;23;20332;-48
2023/07/09 23:54:28;;;;;;;19.95;13.25;;;16.20;99.90;;;;;;25710232;23;20016;-45
